• Join FlightAware (Why Join?)
  • Login
  • US Flag 
10:09AM EDT


 

Airport Tracker/Info


-or-


 

Live Flight TrackerFlight Track Log ✈ FLG4139 ✈ 11-May-2013 ✈ KCID - KMSP

Flight Track Log - Related Links

Times and Time Zones

All times are in EDT time to prevent confusion due to time zone crossing. See the FLG4139 flight status page for this flight to view local times or setup timezone preferences in your user account.

Time Position Orientation Groundspeed Altitude Reporting Facility
EDT Latitude Longitude Course Direction KTS MPH feet Rate Location/Type
07:19AM 41.8969 -91.7647 324° Northwest 149 171 3,600  Level Chicago Center
07:20AM 41.9419 -91.8067 325° Northwest 196 226 6,000 2,760 Climbing Chicago Center
07:21AM 42.0641 -91.8974 323° Northwest  Level FlightAware Approximate
07:21AM 41.9967 -91.8608 324° Northwest 233 268 9,300  Level Chicago Center
07:22AM 42.1271 -91.9603 323° Northwest  Level FlightAware Approximate
07:22AM 42.0681 -91.9286 325° Northwest 256 295 11,500  Level Chicago Center
07:23AM 42.1900 -92.0233 323° Northwest  Level FlightAware Approximate
07:23AM 42.1400 -91.9975 325° Northwest 301 346 13,800  Level Chicago Center
07:24AM 42.2529 -92.0862 324° Northwest  Level FlightAware Approximate
07:24AM 42.2125 -92.0664 325° Northwest 315 362 15,800  Level Chicago Center
07:25AM 42.2878 -92.1389 325° Northwest 329 379 17,800 1,620 Climbing Chicago Center
07:26AM 42.3647 -92.2119 325° Northwest 335 386 19,100 1,080 Climbing Chicago Center
07:27AM 42.4442 -92.2892 324° Northwest 349 402 20,000 420 Climbing Chicago Center
07:28AM 42.5292 -92.3731 324° Northwest 374 430 20,000  Level Chicago Center
07:29AM 42.6206 -92.4569 326° Northwest 393 452 20,000  Level Chicago Center
07:30AM 42.7281 -92.5561 326° Northwest 388 447 20,000  Level Minneapolis Center
07:31AM 42.8164 -92.6375 326° Northwest 385 443 20,000  Level Minneapolis Center
07:32AM 42.9053 -92.7192 326° Northwest 386 444 20,000  Level Minneapolis Center
07:34AM 42.9936 -92.8014 326° Northwest 387 445 20,000  Level Minneapolis Center
07:35AM 43.0819 -92.8844 326° Northwest 386 444 20,000  Level Minneapolis Center
07:36AM 43.1711 -92.9661 326° Northwest 388 447 20,000  Level Minneapolis Center
07:37AM 43.2572 -93.0508 324° Northwest 385 443 20,000  Level Minneapolis Center
07:38AM 43.3456 -93.1325 326° Northwest 385 443 20,000  Level Minneapolis Center
07:39AM 43.4339 -93.2144 326° Northwest 385 443 20,000  Level Minneapolis Center
07:40AM 43.5239 -93.2900 329° Northwest 383 441 20,000  Level Minneapolis Center
07:41AM 43.6508 -93.2764 North 411 473 20,000 -240 Level Minneapolis Center
07:42AM 43.7631 -93.2667 North 408 470 19,600 -1,440 Descending Minneapolis Center
07:43AM 43.8717 -93.2556 North 399 459 17,200 -2,340 Descending Minneapolis Center
07:44AM 43.9756 -93.2456 North 382 440 14,900 -2,340 Descending Minneapolis Center
07:45AM 44.0750 -93.2367 North 365 420 12,600 -2,280 Descending Minneapolis Center
07:46AM 44.1736 -93.2272 North 354 407 10,400 -1,320 Descending Minneapolis Center
07:47AM 44.2672 -93.2181 North 336 387 10,000 -300 Descending Minneapolis Center
07:48AM 44.3464 -93.2108 North 279 321 9,800 -900 Descending Minneapolis Center
07:49AM 44.4108 -93.1981 North 238 274 8,200 -1,440 Descending Minneapolis Center
07:50AM 44.4750 -93.1764 14° North 239 275 7,000 -600 Descending Minneapolis Center
07:51AM 44.5392 -93.1547 14° North 239 275 7,000 -600 Level Minneapolis Center
07:52AM 44.6042 -93.1336 13° North 241 277 5,800 -1,380 Descending Minneapolis Center
07:53AM 44.6636 -93.1131 14° North 226 260 4,300 -1,200 Descending Minneapolis Center
07:54AM 44.7306 -93.0917 13° North 209 241 3,500 -660 Descending Minneapolis Center
07:55AM 44.7781 -93.0750 14° North 181 208 3,000 -540 Descending Minneapolis Center